sensor_id;sensor_type;location;lat;lon;timestamp;temperature;humidity
9640;DHT22;51745;50.872;4.732;2023-07-08T00:01:29;19.20;62.50
9640;DHT22;51745;50.872;4.732;2023-07-08T00:03:58;19.20;61.30
9640;DHT22;51745;50.872;4.732;2023-07-08T00:06:28;19.10;62.20
9640;DHT22;51745;50.872;4.732;2023-07-08T00:08:59;19.10;62.20
9640;DHT22;51745;50.872;4.732;2023-07-08T00:11:29;19.00;61.80
9640;DHT22;51745;50.872;4.732;2023-07-08T00:13:58;18.90;61.90
9640;DHT22;51745;50.872;4.732;2023-07-08T00:16:28;18.80;62.00
9640;DHT22;51745;50.872;4.732;2023-07-08T00:18:56;18.90;62.40
9640;DHT22;51745;50.872;4.732;2023-07-08T00:21:26;18.70;62.30
9640;DHT22;51745;50.872;4.732;2023-07-08T00:23:55;18.80;62.50
9640;DHT22;51745;50.872;4.732;2023-07-08T00:26:28;18.80;62.30
9640;DHT22;51745;50.872;4.732;2023-07-08T00:28:59;18.70;62.30
9640;DHT22;51745;50.872;4.732;2023-07-08T00:31:28;18.80;62.60
9640;DHT22;51745;50.872;4.732;2023-07-08T00:33:59;18.80;63.00
9640;DHT22;51745;50.872;4.732;2023-07-08T00:36:31;18.60;62.70
9640;DHT22;51745;50.872;4.732;2023-07-08T00:39:00;18.30;63.90
9640;DHT22;51745;50.872;4.732;2023-07-08T00:41:32;18.60;64.50
9640;DHT22;51745;50.872;4.732;2023-07-08T00:44:02;18.40;63.60
9640;DHT22;51745;50.872;4.732;2023-07-08T00:46:48;18.50;63.20
9640;DHT22;51745;50.872;4.732;2023-07-08T00:49:26;18.40;63.40
9640;DHT22;51745;50.872;4.732;2023-07-08T00:51:56;18.50;63.70
9640;DHT22;51745;50.872;4.732;2023-07-08T00:54:25;18.60;63.70
9640;DHT22;51745;50.872;4.732;2023-07-08T00:56:57;18.50;63.30
9640;DHT22;51745;50.872;4.732;2023-07-08T00:59:31;18.50;63.70
9640;DHT22;51745;50.872;4.732;2023-07-08T01:02:04;18.50;63.80
9640;DHT22;51745;50.872;4.732;2023-07-08T01:04:40;18.50;63.70
9640;DHT22;51745;50.872;4.732;2023-07-08T01:07:12;18.50;63.80
9640;DHT22;51745;50.872;4.732;2023-07-08T01:09:49;18.50;63.70
9640;DHT22;51745;50.872;4.732;2023-07-08T01:12:23;18.50;63.90
9640;DHT22;51745;50.872;4.732;2023-07-08T01:14:54;18.40;64.50
9640;DHT22;51745;50.872;4.732;2023-07-08T01:17:24;18.30;64.30
9640;DHT22;51745;50.872;4.732;2023-07-08T01:19:53;18.30;64.40
9640;DHT22;51745;50.872;4.732;2023-07-08T01:22:24;18.30;64.20
9640;DHT22;51745;50.872;4.732;2023-07-08T01:25:00;18.20;64.30
9640;DHT22;51745;50.872;4.732;2023-07-08T01:27:32;18.20;64.40
9640;DHT22;51745;50.872;4.732;2023-07-08T01:30:04;18.30;64.20
9640;DHT22;51745;50.872;4.732;2023-07-08T01:32:34;18.20;64.10
9640;DHT22;51745;50.872;4.732;2023-07-08T01:35:04;18.20;64.90
9640;DHT22;51745;50.872;4.732;2023-07-08T01:37:38;18.10;64.50
9640;DHT22;51745;50.872;4.732;2023-07-08T01:40:15;18.20;64.60
9640;DHT22;51745;50.872;4.732;2023-07-08T01:42:45;18.20;64.60
9640;DHT22;51745;50.872;4.732;2023-07-08T01:45:15;18.00;64.60
9640;DHT22;51745;50.872;4.732;2023-07-08T01:47:48;18.10;65.20
9640;DHT22;51745;50.872;4.732;2023-07-08T01:50:18;18.10;64.30
9640;DHT22;51745;50.872;4.732;2023-07-08T01:52:51;18.00;65.20
9640;DHT22;51745;50.872;4.732;2023-07-08T01:55:22;17.90;66.60
9640;DHT22;51745;50.872;4.732;2023-07-08T01:57:52;17.90;65.70
9640;DHT22;51745;50.872;4.732;2023-07-08T02:00:22;17.90;65.10
9640;DHT22;51745;50.872;4.732;2023-07-08T02:02:51;17.90;65.40
9640;DHT22;51745;50.872;4.732;2023-07-08T02:05:20;17.90;65.40
9640;DHT22;51745;50.872;4.732;2023-07-08T02:07:50;17.90;65.60
9640;DHT22;51745;50.872;4.732;2023-07-08T02:10:19;17.80;65.50
9640;DHT22;51745;50.872;4.732;2023-07-08T02:12:48;17.80;65.80
9640;DHT22;51745;50.872;4.732;2023-07-08T02:15:17;17.80;65.60
9640;DHT22;51745;50.872;4.732;2023-07-08T02:17:46;17.70;66.30
9640;DHT22;51745;50.872;4.732;2023-07-08T02:20:16;17.70;66.00
9640;DHT22;51745;50.872;4.732;2023-07-08T02:22:45;17.70;66.50
9640;DHT22;51745;50.872;4.732;2023-07-08T02:25:15;17.70;66.20
9640;DHT22;51745;50.872;4.732;2023-07-08T02:27:45;17.60;67.00
9640;DHT22;51745;50.872;4.732;2023-07-08T02:30:13;17.60;66.80
9640;DHT22;51745;50.872;4.732;2023-07-08T02:32:42;17.50;66.70
9640;DHT22;51745;50.872;4.732;2023-07-08T02:35:26;17.50;66.50
9640;DHT22;51745;50.872;4.732;2023-07-08T02:37:55;17.50;66.80
9640;DHT22;51745;50.872;4.732;2023-07-08T02:40:26;17.50;66.70
9640;DHT22;51745;50.872;4.732;2023-07-08T02:42:55;17.50;67.00
9640;DHT22;51745;50.872;4.732;2023-07-08T02:45:24;17.50;67.10
9640;DHT22;51745;50.872;4.732;2023-07-08T02:47:53;17.40;68.00
9640;DHT22;51745;50.872;4.732;2023-07-08T02:50:22;17.40;67.50
9640;DHT22;51745;50.872;4.732;2023-07-08T02:52:53;17.40;67.20
9640;DHT22;51745;50.872;4.732;2023-07-08T02:55:22;17.40;67.40
9640;DHT22;51745;50.872;4.732;2023-07-08T02:57:52;17.40;68.00
9640;DHT22;51745;50.872;4.732;2023-07-08T03:00:21;17.30;67.90
9640;DHT22;51745;50.872;4.732;2023-07-08T03:02:50;17.40;67.80
9640;DHT22;51745;50.872;4.732;2023-07-08T03:05:19;17.40;68.00
9640;DHT22;51745;50.872;4.732;2023-07-08T03:07:48;17.40;68.00
9640;DHT22;51745;50.872;4.732;2023-07-08T03:10:17;17.40;67.80
9640;DHT22;51745;50.872;4.732;2023-07-08T03:12:46;17.40;68.40
9640;DHT22;51745;50.872;4.732;2023-07-08T03:15:16;17.40;68.60
9640;DHT22;51745;50.872;4.732;2023-07-08T03:17:46;17.40;68.40
9640;DHT22;51745;50.872;4.732;2023-07-08T03:20:15;17.40;68.30
9640;DHT22;51745;50.872;4.732;2023-07-08T03:22:44;17.40;68.40
9640;DHT22;51745;50.872;4.732;2023-07-08T03:25:14;17.30;69.10
9640;DHT22;51745;50.872;4.732;2023-07-08T03:27:42;17.30;68.60
9640;DHT22;51745;50.872;4.732;2023-07-08T03:30:12;17.30;69.10
9640;DHT22;51745;50.872;4.732;2023-07-08T03:32:43;17.30;69.10
9640;DHT22;51745;50.872;4.732;2023-07-08T03:35:12;17.20;69.10
9640;DHT22;51745;50.872;4.732;2023-07-08T03:37:41;17.30;69.40
9640;DHT22;51745;50.872;4.732;2023-07-08T03:40:11;17.20;68.90
9640;DHT22;51745;50.872;4.732;2023-07-08T03:42:40;17.20;69.60
9640;DHT22;51745;50.872;4.732;2023-07-08T03:45:10;17.30;69.60
9640;DHT22;51745;50.872;4.732;2023-07-08T03:47:40;17.20;70.30
9640;DHT22;51745;50.872;4.732;2023-07-08T03:50:20;17.00;70.00
9640;DHT22;51745;50.872;4.732;2023-07-08T03:52:52;17.10;69.50
9640;DHT22;51745;50.872;4.732;2023-07-08T03:55:25;17.10;70.20
9640;DHT22;51745;50.872;4.732;2023-07-08T03:57:53;17.10;69.80
9640;DHT22;51745;50.872;4.732;2023-07-08T04:00:22;17.10;69.40
9640;DHT22;51745;50.872;4.732;2023-07-08T04:02:51;17.10;69.80
9640;DHT22;51745;50.872;4.732;2023-07-08T04:05:23;17.00;70.60
9640;DHT22;51745;50.872;4.732;2023-07-08T04:07:53;17.10;69.90
9640;DHT22;51745;50.872;4.732;2023-07-08T04:10:22;17.10;70.10
9640;DHT22;51745;50.872;4.732;2023-07-08T04:12:51;17.00;70.20
9640;DHT22;51745;50.872;4.732;2023-07-08T04:15:20;17.10;70.20
9640;DHT22;51745;50.872;4.732;2023-07-08T04:17:54;17.10;69.80
9640;DHT22;51745;50.872;4.732;2023-07-08T04:20:27;17.10;70.20
9640;DHT22;51745;50.872;4.732;2023-07-08T04:22:56;17.10;70.50
9640;DHT22;51745;50.872;4.732;2023-07-08T04:25:26;17.00;70.10
9640;DHT22;51745;50.872;4.732;2023-07-08T04:27:56;17.10;69.90
9640;DHT22;51745;50.872;4.732;2023-07-08T04:30:26;16.80;70.90
9640;DHT22;51745;50.872;4.732;2023-07-08T04:32:55;17.00;70.60
9640;DHT22;51745;50.872;4.732;2023-07-08T04:35:26;17.00;70.60
9640;DHT22;51745;50.872;4.732;2023-07-08T04:37:56;17.10;70.40
9640;DHT22;51745;50.872;4.732;2023-07-08T04:40:25;17.10;70.50
9640;DHT22;51745;50.872;4.732;2023-07-08T04:42:55;17.10;70.40
9640;DHT22;51745;50.872;4.732;2023-07-08T04:45:28;17.10;69.90
9640;DHT22;51745;50.872;4.732;2023-07-08T04:47:57;17.10;69.70
9640;DHT22;51745;50.872;4.732;2023-07-08T04:50:28;17.10;69.40
9640;DHT22;51745;50.872;4.732;2023-07-08T04:52:57;17.10;69.40
9640;DHT22;51745;50.872;4.732;2023-07-08T04:55:27;17.20;69.50
9640;DHT22;51745;50.872;4.732;2023-07-08T04:57:56;17.20;69.10
9640;DHT22;51745;50.872;4.732;2023-07-08T05:00:26;17.20;69.10
9640;DHT22;51745;50.872;4.732;2023-07-08T05:02:55;17.30;69.40
9640;DHT22;51745;50.872;4.732;2023-07-08T05:05:25;17.30;69.30
9640;DHT22;51745;50.872;4.732;2023-07-08T05:07:56;17.30;69.50
9640;DHT22;51745;50.872;4.732;2023-07-08T05:10:24;17.40;69.50
9640;DHT22;51745;50.872;4.732;2023-07-08T05:12:54;17.40;69.30
9640;DHT22;51745;50.872;4.732;2023-07-08T05:15:23;17.40;69.50
9640;DHT22;51745;50.872;4.732;2023-07-08T05:17:53;17.50;69.40
9640;DHT22;51745;50.872;4.732;2023-07-08T05:20:22;17.50;69.60
9640;DHT22;51745;50.872;4.732;2023-07-08T05:22:51;17.60;69.40
9640;DHT22;51745;50.872;4.732;2023-07-08T05:25:22;17.60;69.00
9640;DHT22;51745;50.872;4.732;2023-07-08T05:27:51;17.70;69.10
9640;DHT22;51745;50.872;4.732;2023-07-08T05:30:21;17.80;69.10
9640;DHT22;51745;50.872;4.732;2023-07-08T05:32:50;17.80;68.70
9640;DHT22;51745;50.872;4.732;2023-07-08T05:35:19;17.90;68.40
9640;DHT22;51745;50.872;4.732;2023-07-08T05:37:49;18.00;68.30
9640;DHT22;51745;50.872;4.732;2023-07-08T05:40:18;18.00;68.00
9640;DHT22;51745;50.872;4.732;2023-07-08T05:42:49;18.10;67.80
9640;DHT22;51745;50.872;4.732;2023-07-08T05:45:18;18.10;67.80
9640;DHT22;51745;50.872;4.732;2023-07-08T05:47:47;18.10;67.80
9640;DHT22;51745;50.872;4.732;2023-07-08T05:50:17;18.20;67.30
9640;DHT22;51745;50.872;4.732;2023-07-08T05:52:46;18.30;67.40
9640;DHT22;51745;50.872;4.732;2023-07-08T05:55:16;18.40;67.70
9640;DHT22;51745;50.872;4.732;2023-07-08T05:57:45;18.50;67.40
9640;DHT22;51745;50.872;4.732;2023-07-08T06:00:17;18.60;67.40
9640;DHT22;51745;50.872;4.732;2023-07-08T06:03:05;18.70;67.30
9640;DHT22;51745;50.872;4.732;2023-07-08T06:05:36;18.70;67.20
9640;DHT22;51745;50.872;4.732;2023-07-08T06:08:08;18.90;64.90
9640;DHT22;51745;50.872;4.732;2023-07-08T06:10:42;19.00;65.40
9640;DHT22;51745;50.872;4.732;2023-07-08T06:13:11;19.10;66.40
9640;DHT22;51745;50.872;4.732;2023-07-08T06:15:42;19.20;66.20
9640;DHT22;51745;50.872;4.732;2023-07-08T06:18:12;19.30;65.70
9640;DHT22;51745;50.872;4.732;2023-07-08T06:20:41;19.40;64.90
9640;DHT22;51745;50.872;4.732;2023-07-08T06:23:11;19.50;65.20
9640;DHT22;51745;50.872;4.732;2023-07-08T06:25:40;19.70;65.00
9640;DHT22;51745;50.872;4.732;2023-07-08T06:28:09;19.90;64.80
9640;DHT22;51745;50.872;4.732;2023-07-08T06:30:38;19.90;64.20
9640;DHT22;51745;50.872;4.732;2023-07-08T06:33:09;20.00;64.20
9640;DHT22;51745;50.872;4.732;2023-07-08T06:35:40;20.10;63.80
9640;DHT22;51745;50.872;4.732;2023-07-08T06:38:10;20.30;64.20
9640;DHT22;51745;50.872;4.732;2023-07-08T06:40:39;20.40;63.50
9640;DHT22;51745;50.872;4.732;2023-07-08T06:43:09;20.60;63.70
9640;DHT22;51745;50.872;4.732;2023-07-08T06:45:48;20.80;63.10
9640;DHT22;51745;50.872;4.732;2023-07-08T06:48:19;20.90;62.50
9640;DHT22;51745;50.872;4.732;2023-07-08T06:50:49;21.10;62.90
9640;DHT22;51745;50.872;4.732;2023-07-08T06:53:19;21.20;62.80
9640;DHT22;51745;50.872;4.732;2023-07-08T06:55:49;21.30;61.90
9640;DHT22;51745;50.872;4.732;2023-07-08T06:58:19;21.50;61.80
9640;DHT22;51745;50.872;4.732;2023-07-08T07:00:49;21.70;61.00
9640;DHT22;51745;50.872;4.732;2023-07-08T07:03:19;21.90;59.60
9640;DHT22;51745;50.872;4.732;2023-07-08T07:05:49;21.90;61.20
9640;DHT22;51745;50.872;4.732;2023-07-08T07:08:18;22.00;59.40
9640;DHT22;51745;50.872;4.732;2023-07-08T07:10:48;22.20;60.80
9640;DHT22;51745;50.872;4.732;2023-07-08T07:13:17;22.30;60.90
9640;DHT22;51745;50.872;4.732;2023-07-08T07:15:48;22.50;58.80
9640;DHT22;51745;50.872;4.732;2023-07-08T07:18:21;22.70;59.60
9640;DHT22;51745;50.872;4.732;2023-07-08T07:20:54;22.80;58.40
9640;DHT22;51745;50.872;4.732;2023-07-08T07:23:23;22.90;57.10
9640;DHT22;51745;50.872;4.732;2023-07-08T07:25:53;23.10;59.80
9640;DHT22;51745;50.872;4.732;2023-07-08T07:28:23;23.30;57.10
9640;DHT22;51745;50.872;4.732;2023-07-08T07:30:56;23.40;56.40
9640;DHT22;51745;50.872;4.732;2023-07-08T07:33:29;23.50;56.80
9640;DHT22;51745;50.872;4.732;2023-07-08T07:35:59;23.70;55.80
9640;DHT22;51745;50.872;4.732;2023-07-08T07:38:32;23.80;56.40
9640;DHT22;51745;50.872;4.732;2023-07-08T07:41:02;23.90;55.80
9640;DHT22;51745;50.872;4.732;2023-07-08T07:43:34;24.00;56.30
9640;DHT22;51745;50.872;4.732;2023-07-08T07:46:04;24.20;55.20
9640;DHT22;51745;50.872;4.732;2023-07-08T07:48:35;24.30;55.10
9640;DHT22;51745;50.872;4.732;2023-07-08T07:51:05;24.40;56.00
9640;DHT22;51745;50.872;4.732;2023-07-08T07:53:38;24.40;54.30
9640;DHT22;51745;50.872;4.732;2023-07-08T07:56:07;24.50;54.10
9640;DHT22;51745;50.872;4.732;2023-07-08T07:58:37;24.70;55.70
9640;DHT22;51745;50.872;4.732;2023-07-08T08:01:05;24.80;54.20
9640;DHT22;51745;50.872;4.732;2023-07-08T08:03:36;25.00;54.50
9640;DHT22;51745;50.872;4.732;2023-07-08T08:06:06;25.20;54.50
9640;DHT22;51745;50.872;4.732;2023-07-08T08:08:35;25.40;53.70
9640;DHT22;51745;50.872;4.732;2023-07-08T08:11:05;25.40;53.90
9640;DHT22;51745;50.872;4.732;2023-07-08T08:13:34;25.60;54.00
9640;DHT22;51745;50.872;4.732;2023-07-08T08:16:04;25.80;53.50
9640;DHT22;51745;50.872;4.732;2023-07-08T08:18:35;25.90;52.00
9640;DHT22;51745;50.872;4.732;2023-07-08T08:21:05;26.10;52.00
9640;DHT22;51745;50.872;4.732;2023-07-08T08:23:35;26.10;51.30
9640;DHT22;51745;50.872;4.732;2023-07-08T08:26:04;26.30;50.50
9640;DHT22;51745;50.872;4.732;2023-07-08T08:28:33;26.30;50.10
9640;DHT22;51745;50.872;4.732;2023-07-08T08:31:02;26.50;49.60
9640;DHT22;51745;50.872;4.732;2023-07-08T08:33:32;26.60;49.90
9640;DHT22;51745;50.872;4.732;2023-07-08T08:36:02;26.70;50.00
9640;DHT22;51745;50.872;4.732;2023-07-08T08:38:31;26.80;49.20
9640;DHT22;51745;50.872;4.732;2023-07-08T08:41:03;26.90;49.70
9640;DHT22;51745;50.872;4.732;2023-07-08T08:43:35;27.00;49.90
9640;DHT22;51745;50.872;4.732;2023-07-08T08:46:12;27.20;48.90
9640;DHT22;51745;50.872;4.732;2023-07-08T08:48:51;27.20;49.70
9640;DHT22;51745;50.872;4.732;2023-07-08T08:51:25;27.40;49.80
9640;DHT22;51745;50.872;4.732;2023-07-08T08:53:57;27.50;48.20
9640;DHT22;51745;50.872;4.732;2023-07-08T08:56:29;27.60;48.50
9640;DHT22;51745;50.872;4.732;2023-07-08T08:59:06;27.70;50.90
9640;DHT22;51745;50.872;4.732;2023-07-08T09:01:36;27.80;48.70
9640;DHT22;51745;50.872;4.732;2023-07-08T09:04:08;27.80;49.00
9640;DHT22;51745;50.872;4.732;2023-07-08T09:06:40;28.10;48.80
9640;DHT22;51745;50.872;4.732;2023-07-08T09:09:15;28.20;49.70
9640;DHT22;51745;50.872;4.732;2023-07-08T09:11:52;28.20;48.90
9640;DHT22;51745;50.872;4.732;2023-07-08T09:14:24;28.20;48.90
9640;DHT22;51745;50.872;4.732;2023-07-08T09:17:14;28.40;48.30
9640;DHT22;51745;50.872;4.732;2023-07-08T09:19:51;28.60;46.80
9640;DHT22;51745;50.872;4.732;2023-07-08T09:22:31;28.50;44.30
9640;DHT22;51745;50.872;4.732;2023-07-08T09:25:07;28.60;44.20
9640;DHT22;51745;50.872;4.732;2023-07-08T09:27:42;28.70;43.60
9640;DHT22;51745;50.872;4.732;2023-07-08T09:30:13;28.80;43.70
9640;DHT22;51745;50.872;4.732;2023-07-08T09:32:43;28.90;43.60
9640;DHT22;51745;50.872;4.732;2023-07-08T09:35:18;29.10;45.40
9640;DHT22;51745;50.872;4.732;2023-07-08T09:37:50;29.00;43.40
9640;DHT22;51745;50.872;4.732;2023-07-08T09:40:22;29.00;43.40
9640;DHT22;51745;50.872;4.732;2023-07-08T09:42:55;29.10;42.50
9640;DHT22;51745;50.872;4.732;2023-07-08T09:45:28;29.30;42.20
9640;DHT22;51745;50.872;4.732;2023-07-08T09:48:01;29.40;42.20
9640;DHT22;51745;50.872;4.732;2023-07-08T09:50:30;29.60;43.60
9640;DHT22;51745;50.872;4.732;2023-07-08T09:53:03;29.60;43.00
9640;DHT22;51745;50.872;4.732;2023-07-08T09:55:33;29.60;41.00
9640;DHT22;51745;50.872;4.732;2023-07-08T09:58:02;29.80;42.20
9640;DHT22;51745;50.872;4.732;2023-07-08T10:00:39;29.80;41.40
9640;DHT22;51745;50.872;4.732;2023-07-08T10:03:15;29.80;41.20
9640;DHT22;51745;50.872;4.732;2023-07-08T10:05:47;30.00;41.60
9640;DHT22;51745;50.872;4.732;2023-07-08T10:08:19;30.30;40.90
9640;DHT22;51745;50.872;4.732;2023-07-08T10:10:56;30.20;39.50
9640;DHT22;51745;50.872;4.732;2023-07-08T10:13:37;30.20;39.10
9640;DHT22;51745;50.872;4.732;2023-07-08T10:16:13;30.30;39.00
9640;DHT22;51745;50.872;4.732;2023-07-08T10:18:43;30.40;39.50
9640;DHT22;51745;50.872;4.732;2023-07-08T10:21:22;30.50;40.30
9640;DHT22;51745;50.872;4.732;2023-07-08T10:24:07;30.60;39.20
9640;DHT22;51745;50.872;4.732;2023-07-08T10:26:43;30.70;38.10
9640;DHT22;51745;50.872;4.732;2023-07-08T10:29:22;30.80;39.90
9640;DHT22;51745;50.872;4.732;2023-07-08T10:31:57;30.70;40.10
9640;DHT22;51745;50.872;4.732;2023-07-08T10:34:36;30.90;39.70
9640;DHT22;51745;50.872;4.732;2023-07-08T10:37:17;31.10;38.80
9640;DHT22;51745;50.872;4.732;2023-07-08T10:40:22;31.30;39.60
9640;DHT22;51745;50.872;4.732;2023-07-08T10:43:08;31.50;40.50
9640;DHT22;51745;50.872;4.732;2023-07-08T10:45:47;31.60;37.80
9640;DHT22;51745;50.872;4.732;2023-07-08T10:48:28;31.50;38.30
9640;DHT22;51745;50.872;4.732;2023-07-08T10:51:11;31.60;38.90
9640;DHT22;51745;50.872;4.732;2023-07-08T10:54:04;31.70;38.40
9640;DHT22;51745;50.872;4.732;2023-07-08T10:56:41;31.70;39.90
9640;DHT22;51745;50.872;4.732;2023-07-08T10:59:37;31.60;38.50
9640;DHT22;51745;50.872;4.732;2023-07-08T11:05:22;31.70;36.60
9640;DHT22;51745;50.872;4.732;2023-07-08T11:07:58;31.70;37.80
9640;DHT22;51745;50.872;4.732;2023-07-08T11:10:34;31.80;37.50
9640;DHT22;51745;50.872;4.732;2023-07-08T11:13:10;32.00;36.00
9640;DHT22;51745;50.872;4.732;2023-07-08T11:15:45;32.20;36.50
9640;DHT22;51745;50.872;4.732;2023-07-08T11:18:19;32.10;35.30
9640;DHT22;51745;50.872;4.732;2023-07-08T11:20:54;32.20;36.90
9640;DHT22;51745;50.872;4.732;2023-07-08T11:23:31;32.20;36.00
9640;DHT22;51745;50.872;4.732;2023-07-08T11:26:10;32.40;35.70
9640;DHT22;51745;50.872;4.732;2023-07-08T11:28:46;32.40;35.80
9640;DHT22;51745;50.872;4.732;2023-07-08T11:31:16;32.50;37.00
9640;DHT22;51745;50.872;4.732;2023-07-08T11:33:46;32.50;36.40
9640;DHT22;51745;50.872;4.732;2023-07-08T11:36:16;32.70;36.60
9640;DHT22;51745;50.872;4.732;2023-07-08T11:38:48;32.80;36.10
9640;DHT22;51745;50.872;4.732;2023-07-08T11:41:20;32.60;36.20
9640;DHT22;51745;50.872;4.732;2023-07-08T11:43:53;32.70;35.70
9640;DHT22;51745;50.872;4.732;2023-07-08T11:46:26;33.00;37.00
9640;DHT22;51745;50.872;4.732;2023-07-08T11:49:02;33.00;36.00
9640;DHT22;51745;50.872;4.732;2023-07-08T11:51:33;33.10;36.20
9640;DHT22;51745;50.872;4.732;2023-07-08T11:54:13;33.10;35.20
9640;DHT22;51745;50.872;4.732;2023-07-08T11:56:48;33.10;36.10
9640;DHT22;51745;50.872;4.732;2023-07-08T11:59:20;33.30;35.90
9640;DHT22;51745;50.872;4.732;2023-07-08T12:01:53;33.40;35.50
9640;DHT22;51745;50.872;4.732;2023-07-08T12:04:29;33.20;35.00
9640;DHT22;51745;50.872;4.732;2023-07-08T12:07:12;33.10;35.70
9640;DHT22;51745;50.872;4.732;2023-07-08T12:09:48;33.20;36.50
9640;DHT22;51745;50.872;4.732;2023-07-08T12:12:24;33.50;36.30
9640;DHT22;51745;50.872;4.732;2023-07-08T12:15:00;33.60;36.00
9640;DHT22;51745;50.872;4.732;2023-07-08T12:17:30;33.50;35.10
9640;DHT22;51745;50.872;4.732;2023-07-08T12:20:02;33.70;36.50
9640;DHT22;51745;50.872;4.732;2023-07-08T12:22:33;33.60;36.40
9640;DHT22;51745;50.872;4.732;2023-07-08T12:25:02;33.70;35.40
9640;DHT22;51745;50.872;4.732;2023-07-08T12:27:32;33.60;34.90
9640;DHT22;51745;50.872;4.732;2023-07-08T12:30:04;33.70;36.10
9640;DHT22;51745;50.872;4.732;2023-07-08T12:32:34;33.70;35.70
9640;DHT22;51745;50.872;4.732;2023-07-08T12:35:04;33.80;34.30
9640;DHT22;51745;50.872;4.732;2023-07-08T12:37:34;33.80;34.30
9640;DHT22;51745;50.872;4.732;2023-07-08T12:40:08;33.80;35.30
9640;DHT22;51745;50.872;4.732;2023-07-08T12:42:38;34.10;35.50
9640;DHT22;51745;50.872;4.732;2023-07-08T12:45:14;33.70;35.20
9640;DHT22;51745;50.872;4.732;2023-07-08T12:47:44;33.10;36.00
9640;DHT22;51745;50.872;4.732;2023-07-08T12:50:14;32.60;36.60
9640;DHT22;51745;50.872;4.732;2023-07-08T12:52:44;32.60;37.80
9640;DHT22;51745;50.872;4.732;2023-07-08T12:55:14;32.40;37.70
9640;DHT22;51745;50.872;4.732;2023-07-08T12:57:45;31.90;38.60
9640;DHT22;51745;50.872;4.732;2023-07-08T13:00:34;31.10;40.90
9640;DHT22;51745;50.872;4.732;2023-07-08T13:03:08;30.40;42.20
9640;DHT22;51745;50.872;4.732;2023-07-08T13:05:41;30.10;41.90
9640;DHT22;51745;50.872;4.732;2023-07-08T13:08:12;29.90;42.30
9640;DHT22;51745;50.872;4.732;2023-07-08T13:10:42;29.70;41.80
9640;DHT22;51745;50.872;4.732;2023-07-08T13:13:15;29.30;40.90
9640;DHT22;51745;50.872;4.732;2023-07-08T13:15:50;28.90;41.10
9640;DHT22;51745;50.872;4.732;2023-07-08T13:18:23;28.80;42.30
9640;DHT22;51745;50.872;4.732;2023-07-08T13:20:54;28.40;43.90
9640;DHT22;51745;50.872;4.732;2023-07-08T13:23:26;28.30;43.70
9640;DHT22;51745;50.872;4.732;2023-07-08T13:25:56;28.20;44.80
9640;DHT22;51745;50.872;4.732;2023-07-08T13:28:28;28.20;45.10
9640;DHT22;51745;50.872;4.732;2023-07-08T13:31:00;28.00;47.10
9640;DHT22;51745;50.872;4.732;2023-07-08T13:33:31;28.20;45.90
9640;DHT22;51745;50.872;4.732;2023-07-08T13:36:03;28.00;48.80
9640;DHT22;51745;50.872;4.732;2023-07-08T13:38:35;27.70;49.50
9640;DHT22;51745;50.872;4.732;2023-07-08T13:41:07;27.50;53.00
9640;DHT22;51745;50.872;4.732;2023-07-08T13:43:39;27.50;52.50
9640;DHT22;51745;50.872;4.732;2023-07-08T13:46:26;27.80;51.90
9640;DHT22;51745;50.872;4.732;2023-07-08T13:49:00;28.10;50.70
9640;DHT22;51745;50.872;4.732;2023-07-08T13:51:32;28.40;50.00
9640;DHT22;51745;50.872;4.732;2023-07-08T13:54:13;28.20;51.90
9640;DHT22;51745;50.872;4.732;2023-07-08T13:56:43;28.60;51.40
9640;DHT22;51745;50.872;4.732;2023-07-08T13:59:18;28.60;51.80
9640;DHT22;51745;50.872;4.732;2023-07-08T14:01:51;28.70;51.50
9640;DHT22;51745;50.872;4.732;2023-07-08T14:04:24;28.50;52.10
9640;DHT22;51745;50.872;4.732;2023-07-08T14:06:56;28.60;54.00
9640;DHT22;51745;50.872;4.732;2023-07-08T14:09:25;28.60;56.30
9640;DHT22;51745;50.872;4.732;2023-07-08T14:11:55;28.80;55.00
9640;DHT22;51745;50.872;4.732;2023-07-08T14:14:24;28.80;53.30
9640;DHT22;51745;50.872;4.732;2023-07-08T14:16:55;28.80;53.70
9640;DHT22;51745;50.872;4.732;2023-07-08T14:19:26;28.90;52.80
9640;DHT22;51745;50.872;4.732;2023-07-08T14:21:59;28.90;53.20
9640;DHT22;51745;50.872;4.732;2023-07-08T14:24:29;29.00;51.10
9640;DHT22;51745;50.872;4.732;2023-07-08T14:26:58;28.90;50.20
9640;DHT22;51745;50.872;4.732;2023-07-08T14:29:27;29.00;49.90
9640;DHT22;51745;50.872;4.732;2023-07-08T14:31:58;28.90;49.30
9640;DHT22;51745;50.872;4.732;2023-07-08T14:34:28;29.00;49.30
9640;DHT22;51745;50.872;4.732;2023-07-08T14:36:57;29.00;48.00
9640;DHT22;51745;50.872;4.732;2023-07-08T14:39:29;28.80;48.40
9640;DHT22;51745;50.872;4.732;2023-07-08T14:41:58;28.90;49.40
9640;DHT22;51745;50.872;4.732;2023-07-08T14:44:32;28.70;50.20
9640;DHT22;51745;50.872;4.732;2023-07-08T14:47:08;28.90;49.30
9640;DHT22;51745;50.872;4.732;2023-07-08T14:49:38;29.00;48.00
9640;DHT22;51745;50.872;4.732;2023-07-08T14:52:08;29.10;47.50
9640;DHT22;51745;50.872;4.732;2023-07-08T14:54:38;29.40;45.80
9640;DHT22;51745;50.872;4.732;2023-07-08T14:57:09;29.70;44.30
9640;DHT22;51745;50.872;4.732;2023-07-08T14:59:42;30.00;43.30
9640;DHT22;51745;50.872;4.732;2023-07-08T15:02:20;30.40;43.10
9640;DHT22;51745;50.872;4.732;2023-07-08T15:04:50;30.70;42.20
9640;DHT22;51745;50.872;4.732;2023-07-08T15:07:21;31.00;41.30
9640;DHT22;51745;50.872;4.732;2023-07-08T15:09:50;31.10;42.20
9640;DHT22;51745;50.872;4.732;2023-07-08T15:12:19;31.30;42.30
9640;DHT22;51745;50.872;4.732;2023-07-08T15:14:49;31.30;39.60
9640;DHT22;51745;50.872;4.732;2023-07-08T15:17:19;31.30;40.90
9640;DHT22;51745;50.872;4.732;2023-07-08T15:19:48;31.40;40.20
9640;DHT22;51745;50.872;4.732;2023-07-08T15:22:18;31.70;41.60
9640;DHT22;51745;50.872;4.732;2023-07-08T15:24:47;32.20;40.10
9640;DHT22;51745;50.872;4.732;2023-07-08T15:27:19;32.20;40.10
9640;DHT22;51745;50.872;4.732;2023-07-08T15:29:49;32.60;38.80
9640;DHT22;51745;50.872;4.732;2023-07-08T15:32:19;32.90;40.00
9640;DHT22;51745;50.872;4.732;2023-07-08T15:35:12;33.10;39.30
9640;DHT22;51745;50.872;4.732;2023-07-08T15:37:42;33.40;40.00
9640;DHT22;51745;50.872;4.732;2023-07-08T15:40:16;33.40;38.20
9640;DHT22;51745;50.872;4.732;2023-07-08T15:42:49;33.80;40.30
9640;DHT22;51745;50.872;4.732;2023-07-08T15:45:22;33.90;40.00
9640;DHT22;51745;50.872;4.732;2023-07-08T15:47:53;33.80;39.90
9640;DHT22;51745;50.872;4.732;2023-07-08T15:50:25;33.90;39.20
9640;DHT22;51745;50.872;4.732;2023-07-08T15:52:55;34.00;40.50
9640;DHT22;51745;50.872;4.732;2023-07-08T15:55:25;34.00;39.00
9640;DHT22;51745;50.872;4.732;2023-07-08T15:57:57;34.50;39.50
9640;DHT22;51745;50.872;4.732;2023-07-08T16:00:31;34.50;40.10
9640;DHT22;51745;50.872;4.732;2023-07-08T16:03:05;34.70;38.60
9640;DHT22;51745;50.872;4.732;2023-07-08T16:05:36;34.80;40.00
9640;DHT22;51745;50.872;4.732;2023-07-08T16:08:05;34.90;39.20
9640;DHT22;51745;50.872;4.732;2023-07-08T16:10:34;35.00;38.80
9640;DHT22;51745;50.872;4.732;2023-07-08T16:13:05;35.10;38.80
9640;DHT22;51745;50.872;4.732;2023-07-08T16:15:36;35.20;38.80
9640;DHT22;51745;50.872;4.732;2023-07-08T16:18:10;35.30;39.40